sensor_id;sensor_type;location;lat;lon;timestamp;pressure;altitude;pressure_sealevel;temperature;humidity
64086;BME280;50333;47.436;21.390;2022-09-09T00:01:20;100299.44;;;21.00;76.72
64086;BME280;50333;47.436;21.390;2022-09-09T00:04:09;100317.91;;;20.97;77.30
64086;BME280;50333;47.436;21.390;2022-09-09T00:06:53;100316.03;;;21.09;76.45
64086;BME280;50333;47.436;21.390;2022-09-09T00:09:27;100322.41;;;21.08;76.82
64086;BME280;50333;47.436;21.390;2022-09-09T00:12:02;100327.28;;;20.94;77.62
64086;BME280;50333;47.436;21.390;2022-09-09T00:15:05;100331.25;;;21.00;77.99
64086;BME280;50333;47.436;21.390;2022-09-09T00:17:36;100342.84;;;20.71;80.06
64086;BME280;50333;47.436;21.390;2022-09-09T00:20:25;100351.78;;;20.79;80.77
64086;BME280;50333;47.436;21.390;2022-09-09T00:28:54;100336.22;;;20.77;80.58
64086;BME280;50333;47.436;21.390;2022-09-09T00:31:27;100337.88;;;20.69;81.44
64086;BME280;50333;47.436;21.390;2022-09-09T00:34:00;100343.62;;;20.84;80.32
64086;BME280;50333;47.436;21.390;2022-09-09T00:36:31;100350.47;;;20.85;80.53
64086;BME280;50333;47.436;21.390;2022-09-09T00:39:02;100356.75;;;20.80;80.75
64086;BME280;50333;47.436;21.390;2022-09-09T00:46:59;100366.16;;;21.15;80.20
64086;BME280;50333;47.436;21.390;2022-09-09T00:50:00;100354.66;;;20.98;80.65
64086;BME280;50333;47.436;21.390;2022-09-09T00:55:16;100347.84;;;20.97;79.23
64086;BME280;50333;47.436;21.390;2022-09-09T00:57:51;100352.34;;;21.09;79.34
64086;BME280;50333;47.436;21.390;2022-09-09T01:08:02;100380.94;;;21.40;77.56
64086;BME280;50333;47.436;21.390;2022-09-09T01:10:41;100366.37;;;21.34;78.10
64086;BME280;50333;47.436;21.390;2022-09-09T01:13:22;100360.00;;;21.48;77.70
64086;BME280;50333;47.436;21.390;2022-09-09T01:15:50;100379.09;;;21.41;77.77
64086;BME280;50333;47.436;21.390;2022-09-09T01:18:29;100393.78;;;21.51;77.24
64086;BME280;50333;47.436;21.390;2022-09-09T01:26:46;100411.69;;;21.17;79.35
64086;BME280;50333;47.436;21.390;2022-09-09T01:29:17;100394.00;;;21.58;76.65
64086;BME280;50333;47.436;21.390;2022-09-09T01:31:56;100356.84;;;21.58;75.78
64086;BME280;50333;47.436;21.390;2022-09-09T01:34:28;100355.78;;;21.22;77.02
64086;BME280;50333;47.436;21.390;2022-09-09T01:37:10;100371.22;;;20.95;78.87
64086;BME280;50333;47.436;21.390;2022-09-09T01:39:41;100373.00;;;21.03;78.23
64086;BME280;50333;47.436;21.390;2022-09-09T01:42:13;100373.69;;;21.13;77.70
64086;BME280;50333;47.436;21.390;2022-09-09T01:44:43;100384.03;;;20.81;78.51
64086;BME280;50333;47.436;21.390;2022-09-09T01:47:10;100382.91;;;20.69;79.39
64086;BME280;50333;47.436;21.390;2022-09-09T01:49:39;100369.47;;;20.75;79.35
64086;BME280;50333;47.436;21.390;2022-09-09T01:52:08;100361.19;;;20.76;79.62
64086;BME280;50333;47.436;21.390;2022-09-09T01:54:37;100373.31;;;20.77;79.49
64086;BME280;50333;47.436;21.390;2022-09-09T01:57:25;100367.38;;;20.80;79.21
64086;BME280;50333;47.436;21.390;2022-09-09T02:06:18;100308.88;;;20.27;81.98
64086;BME280;50333;47.436;21.390;2022-09-09T02:11:16;100317.50;;;20.37;81.43
64086;BME280;50333;47.436;21.390;2022-09-09T02:13:46;100317.00;;;20.22;82.15
64086;BME280;50333;47.436;21.390;2022-09-09T02:21:24;100309.94;;;20.14;82.85
64086;BME280;50333;47.436;21.390;2022-09-09T02:23:58;100305.44;;;19.93;84.09
64086;BME280;50333;47.436;21.390;2022-09-09T02:26:29;100302.28;;;20.00;84.35
64086;BME280;50333;47.436;21.390;2022-09-09T02:28:58;100306.44;;;20.22;83.18
64086;BME280;50333;47.436;21.390;2022-09-09T02:31:30;100294.94;;;20.18;83.42
64086;BME280;50333;47.436;21.390;2022-09-09T02:34:01;100291.47;;;20.05;84.03
64086;BME280;50333;47.436;21.390;2022-09-09T02:36:34;100282.94;;;19.87;84.02
64086;BME280;50333;47.436;21.390;2022-09-09T02:39:04;100270.87;;;19.77;85.49
64086;BME280;50333;47.436;21.390;2022-09-09T02:41:38;100259.69;;;19.72;85.93
64086;BME280;50333;47.436;21.390;2022-09-09T02:44:14;100269.34;;;19.68;85.08
64086;BME280;50333;47.436;21.390;2022-09-09T02:49:57;100276.16;;;19.77;85.04
64086;BME280;50333;47.436;21.390;2022-09-09T02:52:47;100273.03;;;19.96;84.60
64086;BME280;50333;47.436;21.390;2022-09-09T02:57:53;100291.53;;;19.84;85.22
64086;BME280;50333;47.436;21.390;2022-09-09T03:00:26;100302.16;;;19.96;84.86
64086;BME280;50333;47.436;21.390;2022-09-09T03:02:56;100307.41;;;20.18;83.52
64086;BME280;50333;47.436;21.390;2022-09-09T03:05:24;100313.19;;;19.99;84.77
64086;BME280;50333;47.436;21.390;2022-09-09T03:08:01;100313.41;;;20.06;84.30
64086;BME280;50333;47.436;21.390;2022-09-09T03:10:32;100318.72;;;20.06;84.10
64086;BME280;50333;47.436;21.390;2022-09-09T03:13:01;100313.94;;;19.99;84.34
64086;BME280;50333;47.436;21.390;2022-09-09T03:15:30;100314.69;;;19.87;85.52
64086;BME280;50333;47.436;21.390;2022-09-09T03:17:58;100306.78;;;20.00;83.99
64086;BME280;50333;47.436;21.390;2022-09-09T03:20:28;100313.22;;;20.11;84.39
64086;BME280;50333;47.436;21.390;2022-09-09T03:22:57;100304.56;;;20.35;82.76
64086;BME280;50333;47.436;21.390;2022-09-09T03:25:26;100310.16;;;20.21;83.18
64086;BME280;50333;47.436;21.390;2022-09-09T03:27:57;100317.22;;;20.17;82.84
64086;BME280;50333;47.436;21.390;2022-09-09T03:30:26;100315.97;;;20.14;83.91
64086;BME280;50333;47.436;21.390;2022-09-09T03:32:55;100314.97;;;20.07;84.30
64086;BME280;50333;47.436;21.390;2022-09-09T03:35:23;100308.88;;;20.27;82.66
64086;BME280;50333;47.436;21.390;2022-09-09T03:37:51;100299.91;;;20.20;83.52
64086;BME280;50333;47.436;21.390;2022-09-09T03:40:19;100300.06;;;20.48;82.06
64086;BME280;50333;47.436;21.390;2022-09-09T03:42:47;100309.44;;;20.45;82.24
64086;BME280;50333;47.436;21.390;2022-09-09T03:45:16;100314.00;;;20.57;81.30
64086;BME280;50333;47.436;21.390;2022-09-09T03:47:45;100316.84;;;20.52;81.52
64086;BME280;50333;47.436;21.390;2022-09-09T03:50:14;100316.91;;;20.64;80.72
64086;BME280;50333;47.436;21.390;2022-09-09T03:52:42;100313.94;;;20.66;80.76
64086;BME280;50333;47.436;21.390;2022-09-09T03:55:12;100316.25;;;20.67;80.66
64086;BME280;50333;47.436;21.390;2022-09-09T03:57:42;100317.41;;;20.58;80.91
64086;BME280;50333;47.436;21.390;2022-09-09T04:00:10;100320.22;;;20.28;82.31
64086;BME280;50333;47.436;21.390;2022-09-09T04:02:42;100321.66;;;20.38;81.78
64086;BME280;50333;47.436;21.390;2022-09-09T04:05:11;100328.59;;;19.96;83.84
64086;BME280;50333;47.436;21.390;2022-09-09T04:07:40;100326.94;;;19.92;84.16
64086;BME280;50333;47.436;21.390;2022-09-09T04:10:08;100324.09;;;19.76;85.13
64086;BME280;50333;47.436;21.390;2022-09-09T04:12:37;100320.62;;;20.18;82.88
64086;BME280;50333;47.436;21.390;2022-09-09T04:15:05;100314.38;;;20.22;82.56
64086;BME280;50333;47.436;21.390;2022-09-09T04:17:33;100322.47;;;19.84;84.51
64086;BME280;50333;47.436;21.390;2022-09-09T04:20:05;100321.19;;;19.90;84.43
64086;BME280;50333;47.436;21.390;2022-09-09T04:22:34;100327.69;;;19.71;84.60
64086;BME280;50333;47.436;21.390;2022-09-09T04:25:02;100331.94;;;19.64;86.19
64086;BME280;50333;47.436;21.390;2022-09-09T04:27:30;100324.00;;;20.06;83.95
64086;BME280;50333;47.436;21.390;2022-09-09T04:29:58;100327.31;;;20.36;82.34
64086;BME280;50333;47.436;21.390;2022-09-09T04:32:26;100322.91;;;20.07;83.20
64086;BME280;50333;47.436;21.390;2022-09-09T04:34:54;100311.97;;;20.29;82.02
64086;BME280;50333;47.436;21.390;2022-09-09T04:37:23;100313.47;;;20.18;82.81
64086;BME280;50333;47.436;21.390;2022-09-09T04:39:52;100312.88;;;20.12;83.26
64086;BME280;50333;47.436;21.390;2022-09-09T04:42:20;100323.44;;;20.46;81.26
64086;BME280;50333;47.436;21.390;2022-09-09T04:44:48;100322.72;;;20.58;80.62
64086;BME280;50333;47.436;21.390;2022-09-09T04:47:17;100325.56;;;20.52;80.75
64086;BME280;50333;47.436;21.390;2022-09-09T04:49:45;100324.84;;;20.77;79.84
64086;BME280;50333;47.436;21.390;2022-09-09T04:52:13;100322.88;;;20.86;79.16
64086;BME280;50333;47.436;21.390;2022-09-09T04:54:40;100328.16;;;20.86;79.37
64086;BME280;50333;47.436;21.390;2022-09-09T04:57:10;100327.50;;;20.64;80.35
64086;BME280;50333;47.436;21.390;2022-09-09T04:59:48;100324.59;;;20.57;81.14
64086;BME280;50333;47.436;21.390;2022-09-09T05:02:15;100329.28;;;20.97;78.89
64086;BME280;50333;47.436;21.390;2022-09-09T05:04:43;100325.06;;;20.84;79.08
64086;BME280;50333;47.436;21.390;2022-09-09T05:07:12;100329.63;;;20.96;78.90
64086;BME280;50333;47.436;21.390;2022-09-09T05:09:42;100332.25;;;20.96;79.35
64086;BME280;50333;47.436;21.390;2022-09-09T05:12:10;100339.09;;;20.97;79.21
64086;BME280;50333;47.436;21.390;2022-09-09T05:14:40;100339.31;;;20.91;79.76
64086;BME280;50333;47.436;21.390;2022-09-09T05:17:08;100344.50;;;21.00;78.93
64086;BME280;50333;47.436;21.390;2022-09-09T05:19:36;100341.53;;;21.14;77.89
64086;BME280;50333;47.436;21.390;2022-09-09T05:22:04;100341.19;;;21.16;77.81
64086;BME280;50333;47.436;21.390;2022-09-09T05:24:33;100332.03;;;21.01;79.12
64086;BME280;50333;47.436;21.390;2022-09-09T05:27:02;100329.72;;;21.24;77.81
64086;BME280;50333;47.436;21.390;2022-09-09T05:29:30;100328.72;;;20.91;79.14
64086;BME280;50333;47.436;21.390;2022-09-09T05:32:01;100327.72;;;20.71;80.48
64086;BME280;50333;47.436;21.390;2022-09-09T05:34:30;100328.06;;;20.95;79.72
64086;BME280;50333;47.436;21.390;2022-09-09T05:36:58;100331.47;;;20.83;80.35
64086;BME280;50333;47.436;21.390;2022-09-09T05:39:25;100338.87;;;20.89;78.74
64086;BME280;50333;47.436;21.390;2022-09-09T05:41:53;100335.69;;;21.08;78.72
64086;BME280;50333;47.436;21.390;2022-09-09T05:44:22;100332.34;;;21.24;77.93
64086;BME280;50333;47.436;21.390;2022-09-09T05:46:55;100339.13;;;20.51;81.26
64086;BME280;50333;47.436;21.390;2022-09-09T05:49:23;100342.00;;;21.04;79.59
64086;BME280;50333;47.436;21.390;2022-09-09T05:51:51;100337.22;;;21.22;78.99
64086;BME280;50333;47.436;21.390;2022-09-09T05:54:20;100339.22;;;21.50;77.37
64086;BME280;50333;47.436;21.390;2022-09-09T05:56:48;100337.34;;;21.13;78.40
64086;BME280;50333;47.436;21.390;2022-09-09T05:59:18;100337.78;;;21.15;79.19
64086;BME280;50333;47.436;21.390;2022-09-09T06:01:46;100332.78;;;21.38;77.44
64086;BME280;50333;47.436;21.390;2022-09-09T06:04:15;100342.50;;;21.59;77.55
64086;BME280;50333;47.436;21.390;2022-09-09T06:06:43;100335.00;;;21.49;78.03
64086;BME280;50333;47.436;21.390;2022-09-09T06:09:11;100327.38;;;21.88;76.90
64086;BME280;50333;47.436;21.390;2022-09-09T06:11:39;100332.19;;;21.98;76.08
64086;BME280;50333;47.436;21.390;2022-09-09T06:14:08;100341.13;;;22.06;77.42
64086;BME280;50333;47.436;21.390;2022-09-09T06:16:36;100334.28;;;22.20;76.94
64086;BME280;50333;47.436;21.390;2022-09-09T06:19:05;100334.66;;;22.19;77.42
64086;BME280;50333;47.436;21.390;2022-09-09T06:21:35;100331.22;;;22.78;73.67
64086;BME280;50333;47.436;21.390;2022-09-09T06:24:06;100332.91;;;22.71;73.61
64086;BME280;50333;47.436;21.390;2022-09-09T06:26:39;100335.31;;;22.44;74.77
64086;BME280;50333;47.436;21.390;2022-09-09T06:29:10;100342.31;;;21.80;77.83
64086;BME280;50333;47.436;21.390;2022-09-09T06:31:38;100346.91;;;22.23;76.14
64086;BME280;50333;47.436;21.390;2022-09-09T06:34:08;100348.69;;;22.48;74.59
64086;BME280;50333;47.436;21.390;2022-09-09T06:36:38;100350.06;;;22.42;75.10
64086;BME280;50333;47.436;21.390;2022-09-09T06:39:07;100350.09;;;22.29;75.97
64086;BME280;50333;47.436;21.390;2022-09-09T06:41:42;100352.72;;;22.57;74.86
64086;BME280;50333;47.436;21.390;2022-09-09T06:44:13;100352.28;;;22.87;73.38
64086;BME280;50333;47.436;21.390;2022-09-09T06:46:41;100354.88;;;22.68;74.67
64086;BME280;50333;47.436;21.390;2022-09-09T06:49:09;100341.91;;;22.82;74.20
64086;BME280;50333;47.436;21.390;2022-09-09T06:51:37;100347.75;;;22.88;74.86
64086;BME280;50333;47.436;21.390;2022-09-09T06:54:11;100341.91;;;22.82;74.77
64086;BME280;50333;47.436;21.390;2022-09-09T06:56:42;100352.72;;;23.05;73.63
64086;BME280;50333;47.436;21.390;2022-09-09T06:59:11;100350.50;;;22.75;74.80
64086;BME280;50333;47.436;21.390;2022-09-09T07:01:41;100354.94;;;22.87;74.13
64086;BME280;50333;47.436;21.390;2022-09-09T07:04:12;100363.44;;;22.77;74.94
64086;BME280;50333;47.436;21.390;2022-09-09T07:06:43;100365.91;;;23.02;73.79
64086;BME280;50333;47.436;21.390;2022-09-09T07:09:13;100364.81;;;23.03;72.98
64086;BME280;50333;47.436;21.390;2022-09-09T07:11:47;100359.31;;;22.95;72.58
64086;BME280;50333;47.436;21.390;2022-09-09T07:14:16;100364.28;;;22.97;73.24
64086;BME280;50333;47.436;21.390;2022-09-09T07:16:45;100361.78;;;22.88;73.32
64086;BME280;50333;47.436;21.390;2022-09-09T07:19:17;100366.69;;;23.18;73.15
64086;BME280;50333;47.436;21.390;2022-09-09T07:21:45;100368.81;;;22.96;74.32
64086;BME280;50333;47.436;21.390;2022-09-09T07:24:13;100367.19;;;22.92;74.62
64086;BME280;50333;47.436;21.390;2022-09-09T07:26:41;100364.03;;;22.86;73.20
64086;BME280;50333;47.436;21.390;2022-09-09T07:29:10;100381.78;;;23.14;72.58
64086;BME280;50333;47.436;21.390;2022-09-09T07:31:47;100380.25;;;23.13;73.40
64086;BME280;50333;47.436;21.390;2022-09-09T07:34:17;100376.53;;;23.33;72.78
64086;BME280;50333;47.436;21.390;2022-09-09T07:36:44;100367.62;;;22.78;74.14
64086;BME280;50333;47.436;21.390;2022-09-09T07:39:14;100371.16;;;22.82;74.19
64086;BME280;50333;47.436;21.390;2022-09-09T07:41:44;100382.03;;;22.77;74.50
64086;BME280;50333;47.436;21.390;2022-09-09T07:44:15;100387.00;;;22.63;74.84
64086;BME280;50333;47.436;21.390;2022-09-09T07:46:44;100374.91;;;22.97;73.90
64086;BME280;50333;47.436;21.390;2022-09-09T07:49:14;100391.19;;;22.79;75.67
64086;BME280;50333;47.436;21.390;2022-09-09T07:51:44;100383.84;;;23.05;74.97
64086;BME280;50333;47.436;21.390;2022-09-09T07:54:15;100387.69;;;23.39;73.45
64086;BME280;50333;47.436;21.390;2022-09-09T07:56:44;100387.69;;;23.39;73.15
64086;BME280;50333;47.436;21.390;2022-09-09T07:59:12;100380.88;;;23.42;73.19
64086;BME280;50333;47.436;21.390;2022-09-09T08:01:43;100384.28;;;22.75;75.45
64086;BME280;50333;47.436;21.390;2022-09-09T08:04:15;100385.94;;;23.11;74.38
64086;BME280;50333;47.436;21.390;2022-09-09T08:06:46;100389.34;;;23.12;73.08
64086;BME280;50333;47.436;21.390;2022-09-09T08:09:16;100394.06;;;23.54;72.30
64086;BME280;50333;47.436;21.390;2022-09-09T08:11:44;100394.09;;;23.73;71.08
64086;BME280;50333;47.436;21.390;2022-09-09T08:14:12;100385.81;;;23.79;70.06
64086;BME280;50333;47.436;21.390;2022-09-09T08:16:43;100391.12;;;23.95;70.00
64086;BME280;50333;47.436;21.390;2022-09-09T08:19:12;100390.00;;;23.96;70.27
64086;BME280;50333;47.436;21.390;2022-09-09T08:21:44;100384.72;;;23.80;70.78
64086;BME280;50333;47.436;21.390;2022-09-09T08:24:13;100387.75;;;24.17;69.03
64086;BME280;50333;47.436;21.390;2022-09-09T08:26:47;100382.63;;;24.28;66.57
64086;BME280;50333;47.436;21.390;2022-09-09T08:29:17;100387.62;;;24.53;68.79
64086;BME280;50333;47.436;21.390;2022-09-09T08:31:54;100392.28;;;24.36;69.60
64086;BME280;50333;47.436;21.390;2022-09-09T08:34:23;100388.38;;;24.53;67.58
64086;BME280;50333;47.436;21.390;2022-09-09T08:36:52;100386.63;;;24.61;67.92
64086;BME280;50333;47.436;21.390;2022-09-09T08:39:21;100387.25;;;24.74;66.61
64086;BME280;50333;47.436;21.390;2022-09-09T08:50:18;100391.12;;;24.80;65.79
64086;BME280;50333;47.436;21.390;2022-09-09T08:52:57;100398.25;;;24.72;66.59
64086;BME280;50333;47.436;21.390;2022-09-09T08:55:45;100398.56;;;24.47;66.69
64086;BME280;50333;47.436;21.390;2022-09-09T08:58:21;100394.69;;;24.22;67.53
64086;BME280;50333;47.436;21.390;2022-09-09T09:06:56;100395.22;;;24.74;65.34
64086;BME280;50333;47.436;21.390;2022-09-09T09:09:38;100391.28;;;25.14;64.24
64086;BME280;50333;47.436;21.390;2022-09-09T09:12:16;100390.66;;;25.24;63.91
64086;BME280;50333;47.436;21.390;2022-09-09T09:14:46;100386.00;;;25.17;65.04
64086;BME280;50333;47.436;21.390;2022-09-09T09:17:20;100390.34;;;25.56;63.57
64086;BME280;50333;47.436;21.390;2022-09-09T09:19:50;100401.69;;;25.76;62.47
64086;BME280;50333;47.436;21.390;2022-09-09T09:22:43;100400.66;;;25.88;61.92
64086;BME280;50333;47.436;21.390;2022-09-09T09:25:23;100401.31;;;26.08;61.84
64086;BME280;50333;47.436;21.390;2022-09-09T09:30:45;100405.09;;;26.07;60.71
64086;BME280;50333;47.436;21.390;2022-09-09T09:36:00;100391.78;;;26.48;59.83
64086;BME280;50333;47.436;21.390;2022-09-09T09:38:30;100395.09;;;26.38;60.91
64086;BME280;50333;47.436;21.390;2022-09-09T09:41:29;100390.91;;;26.40;60.66
64086;BME280;50333;47.436;21.390;2022-09-09T09:43:58;100387.28;;;26.18;60.66
64086;BME280;50333;47.436;21.390;2022-09-09T09:46:29;100388.22;;;26.37;60.23
64086;BME280;50333;47.436;21.390;2022-09-09T09:49:05;100401.69;;;26.10;61.12
64086;BME280;50333;47.436;21.390;2022-09-09T09:51:37;100393.41;;;26.19;60.54
64086;BME280;50333;47.436;21.390;2022-09-09T09:54:28;100397.75;;;26.00;60.72
64086;BME280;50333;47.436;21.390;2022-09-09T09:57:18;100394.69;;;25.68;61.41
64086;BME280;50333;47.436;21.390;2022-09-09T10:00:12;100401.72;;;25.80;61.40
64086;BME280;50333;47.436;21.390;2022-09-09T10:02:42;100397.91;;;25.81;61.43
64086;BME280;50333;47.436;21.390;2022-09-09T10:05:24;100402.00;;;25.71;61.01
64086;BME280;50333;47.436;21.390;2022-09-09T10:13:28;100394.97;;;25.59;61.25
64086;BME280;50333;47.436;21.390;2022-09-09T10:16:25;100395.59;;;26.09;59.65
64086;BME280;50333;47.436;21.390;2022-09-09T10:19:35;100397.41;;;26.39;58.80
64086;BME280;50333;47.436;21.390;2022-09-09T10:22:26;100389.06;;;26.89;57.59
64086;BME280;50333;47.436;21.390;2022-09-09T10:33:37;100390.34;;;27.09;54.88
64086;BME280;50333;47.436;21.390;2022-09-09T10:36:27;100384.12;;;27.50;55.13
64086;BME280;50333;47.436;21.390;2022-09-09T10:42:20;100388.84;;;27.89;52.26
64086;BME280;50333;47.436;21.390;2022-09-09T10:47:50;100393.91;;;28.16;52.07
64086;BME280;50333;47.436;21.390;2022-09-09T10:55:42;100385.53;;;28.39;51.16
64086;BME280;50333;47.436;21.390;2022-09-09T10:58:19;100392.44;;;28.51;51.42
64086;BME280;50333;47.436;21.390;2022-09-09T11:00:54;100395.09;;;28.29;51.67
64086;BME280;50333;47.436;21.390;2022-09-09T11:03:28;100402.38;;;28.32;51.21
64086;BME280;50333;47.436;21.390;2022-09-09T11:06:09;100394.34;;;28.50;51.04
64086;BME280;50333;47.436;21.390;2022-09-09T11:08:41;100399.69;;;28.29;51.42
64086;BME280;50333;47.436;21.390;2022-09-09T11:11:19;100398.06;;;27.92;53.11
64086;BME280;50333;47.436;21.390;2022-09-09T11:21:57;100392.41;;;28.33;52.62
64086;BME280;50333;47.436;21.390;2022-09-09T11:24:33;100388.19;;;28.32;51.58
64086;BME280;50333;47.436;21.390;2022-09-09T11:40:30;100388.56;;;28.12;51.86
64086;BME280;50333;47.436;21.390;2022-09-09T11:43:15;100391.56;;;27.96;51.92
64086;BME280;50333;47.436;21.390;2022-09-09T11:45:51;100393.19;;;27.31;52.61
64086;BME280;50333;47.436;21.390;2022-09-09T11:51:12;100389.56;;;27.75;53.06
64086;BME280;50333;47.436;21.390;2022-09-09T11:56:56;100383.09;;;27.76;52.59
64086;BME280;50333;47.436;21.390;2022-09-09T11:59:28;100390.09;;;28.13;51.51
64086;BME280;50333;47.436;21.390;2022-09-09T12:01:59;100384.00;;;28.27;50.11
64086;BME280;50333;47.436;21.390;2022-09-09T12:04:40;100382.66;;;27.74;50.39
64086;BME280;50333;47.436;21.390;2022-09-09T12:07:33;100384.22;;;27.75;51.63
64086;BME280;50333;47.436;21.390;2022-09-09T12:12:36;100377.06;;;28.12;50.29
64086;BME280;50333;47.436;21.390;2022-09-09T12:17:43;100370.09;;;27.86;50.64
64086;BME280;50333;47.436;21.390;2022-09-09T12:20:19;100373.06;;;27.59;51.72
64086;BME280;50333;47.436;21.390;2022-09-09T12:30:56;100368.12;;;27.68;50.83
64086;BME280;50333;47.436;21.390;2022-09-09T12:33:36;100357.25;;;27.36;50.91
64086;BME280;50333;47.436;21.390;2022-09-09T12:36:05;100361.16;;;27.49;51.16
64086;BME280;50333;47.436;21.390;2022-09-09T12:38:43;100357.06;;;27.84;49.62
64086;BME280;50333;47.436;21.390;2022-09-09T12:41:22;100349.66;;;26.79;50.31
64086;BME280;50333;47.436;21.390;2022-09-09T12:43:51;100347.75;;;27.45;50.37
64086;BME280;50333;47.436;21.390;2022-09-09T12:46:41;100344.78;;;27.69;49.35
64086;BME280;50333;47.436;21.390;2022-09-09T12:49:26;100344.00;;;27.68;50.72
64086;BME280;50333;47.436;21.390;2022-09-09T12:51:55;100340.16;;;27.69;50.07
64086;BME280;50333;47.436;21.390;2022-09-09T12:54:27;100331.72;;;27.56;48.66
64086;BME280;50333;47.436;21.390;2022-09-09T12:56:59;100328.47;;;27.18;48.99
64086;BME280;50333;47.436;21.390;2022-09-09T12:59:36;100336.19;;;27.31;49.96
64086;BME280;50333;47.436;21.390;2022-09-09T13:02:19;100329.56;;;27.98;48.17
64086;BME280;50333;47.436;21.390;2022-09-09T13:04:47;100328.06;;;28.29;47.36
64086;BME280;50333;47.436;21.390;2022-09-09T13:07:19;100325.37;;;28.15;47.30
64086;BME280;50333;47.436;21.390;2022-09-09T13:09:50;100326.53;;;28.17;47.05
64086;BME280;50333;47.436;21.390;2022-09-09T13:12:19;100319.28;;;28.57;46.48
64086;BME280;50333;47.436;21.390;2022-09-09T13:14:49;100318.87;;;28.41;45.81
64086;BME280;50333;47.436;21.390;2022-09-09T13:17:23;100308.16;;;28.59;46.19
64086;BME280;50333;47.436;21.390;2022-09-09T13:19:51;100310.06;;;28.30;47.57
64086;BME280;50333;47.436;21.390;2022-09-09T13:22:29;100303.94;;;28.47;45.38
64086;BME280;50333;47.436;21.390;2022-09-09T13:25:03;100303.56;;;28.59;43.55
64086;BME280;50333;47.436;21.390;2022-09-09T13:27:35;100297.03;;;28.17;44.25
64086;BME280;50333;47.436;21.390;2022-09-09T13:35:56;100297.44;;;28.30;44.43
64086;BME280;50333;47.436;21.390;2022-09-09T13:38:28;100299.94;;;27.48;45.61
64086;BME280;50333;47.436;21.390;2022-09-09T13:43:26;100295.50;;;28.02;45.08
64086;BME280;50333;47.436;21.390;2022-09-09T13:46:00;100292.44;;;28.47;43.31
64086;BME280;50333;47.436;21.390;2022-09-09T13:48:28;100293.56;;;27.92;44.47
64086;BME280;50333;47.436;21.390;2022-09-09T13:51:01;100297.22;;;27.33;45.27
64086;BME280;50333;47.436;21.390;2022-09-09T13:53:33;100289.62;;;27.50;45.09
64086;BME280;50333;47.436;21.390;2022-09-09T13:56:01;100285.66;;;27.22;46.34
64086;BME280;50333;47.436;21.390;2022-09-09T13:58:28;100293.38;;;27.34;46.45
64086;BME280;50333;47.436;21.390;2022-09-09T14:00:56;100279.72;;;27.61;45.11
64086;BME280;50333;47.436;21.390;2022-09-09T14:03:25;100274.78;;;27.84;44.37
64086;BME280;50333;47.436;21.390;2022-09-09T14:05:58;100267.16;;;27.90;45.51
64086;BME280;50333;47.436;21.390;2022-09-09T14:08:26;100272.06;;;27.59;45.94
64086;BME280;50333;47.436;21.390;2022-09-09T14:10:54;100267.16;;;27.90;45.03
64086;BME280;50333;47.436;21.390;2022-09-09T14:13:23;100259.09;;;27.87;45.57
64086;BME280;50333;47.436;21.390;2022-09-09T14:15:51;100259.88;;;27.91;45.35
64086;BME280;50333;47.436;21.390;2022-09-09T14:18:18;100261.16;;;27.13;45.68
64086;BME280;50333;47.436;21.390;2022-09-09T14:20:46;100256.00;;;27.63;43.83
64086;BME280;50333;47.436;21.390;2022-09-09T14:23:14;100251.78;;;27.62;44.68
64086;BME280;50333;47.436;21.390;2022-09-09T14:25:43;100259.28;;;27.24;45.66
64086;BME280;50333;47.436;21.390;2022-09-09T14:28:12;100255.25;;;27.62;46.09
64086;BME280;50333;47.436;21.390;2022-09-09T14:30:41;100259.50;;;27.89;44.95
64086;BME280;50333;47.436;21.390;2022-09-09T14:33:10;100260.53;;;27.44;45.64
64086;BME280;50333;47.436;21.390;2022-09-09T14:35:39;100249.81;;;27.37;45.05
64086;BME280;50333;47.436;21.390;2022-09-09T14:38:09;100255.13;;;27.30;45.78
64086;BME280;50333;47.436;21.390;2022-09-09T14:40:37;100257.34;;;27.14;45.96
64086;BME280;50333;47.436;21.390;2022-09-09T14:43:05;100244.00;;;27.17;45.40
64086;BME280;50333;47.436;21.390;2022-09-09T14:45:35;100253.44;;;26.97;45.44
64086;BME280;50333;47.436;21.390;2022-09-09T14:48:04;100244.53;;;26.75;45.25
64086;BME280;50333;47.436;21.390;2022-09-09T14:50:33;100251.75;;;26.63;44.86
64086;BME280;50333;47.436;21.390;2022-09-09T14:53:02;100255.75;;;26.98;44.73
64086;BME280;50333;47.436;21.390;2022-09-09T14:55:30;100253.91;;;27.17;44.46
64086;BME280;50333;47.436;21.390;2022-09-09T14:57:57;100256.28;;;27.29;44.47
64086;BME280;50333;47.436;21.390;2022-09-09T15:00:26;100260.22;;;27.68;43.76
64086;BME280;50333;47.436;21.390;2022-09-09T15:02:54;100257.87;;;27.55;46.90
64086;BME280;50333;47.436;21.390;2022-09-09T15:05:22;100260.59;;;27.66;47.45
64086;BME280;50333;47.436;21.390;2022-09-09T15:07:51;100262.81;;;27.39;48.41
64086;BME280;50333;47.436;21.390;2022-09-09T15:10:19;100263.63;;;27.54;47.99
64086;BME280;50333;47.436;21.390;2022-09-09T15:12:47;100263.66;;;27.68;47.72
64086;BME280;50333;47.436;21.390;2022-09-09T15:15:15;100255.16;;;27.41;48.08
64086;BME280;50333;47.436;21.390;2022-09-09T15:17:43;100263.63;;;27.54;47.16
64086;BME280;50333;47.436;21.390;2022-09-09T15:20:10;100263.22;;;27.48;47.36
64086;BME280;50333;47.436;21.390;2022-09-09T15:22:40;100274.19;;;27.18;48.44
64086;BME280;50333;47.436;21.390;2022-09-09T15:25:08;100273.19;;;26.74;50.03
64086;BME280;50333;47.436;21.390;2022-09-09T15:27:36;100281.75;;;27.01;49.15